createdAt,value
2019-03-12T00:00:50.275Z,2.00
2019-03-12T00:03:18.784Z,3.60
2019-03-12T00:05:47.293Z,1.73
2019-03-12T00:08:15.840Z,4.37
2019-03-12T00:10:44.421Z,3.83
2019-03-12T00:13:12.937Z,2.70
2019-03-12T00:15:41.508Z,2.40
2019-03-12T00:18:10.011Z,2.30
2019-03-12T00:20:38.821Z,3.80
2019-03-12T00:23:07.333Z,2.93
2019-03-12T00:25:35.942Z,1.80
2019-03-12T00:28:04.481Z,2.33
2019-03-12T00:30:33.036Z,3.43
2019-03-12T00:33:01.591Z,2.73
2019-03-12T00:35:30.104Z,2.47
2019-03-12T00:37:58.646Z,2.80
2019-03-12T00:40:27.169Z,3.33
2019-03-12T00:42:55.706Z,3.87
2019-03-12T00:45:24.228Z,2.87
2019-03-12T00:47:52.722Z,2.10
2019-03-12T00:50:21.237Z,4.07
2019-03-12T00:52:49.731Z,2.07
2019-03-12T00:55:18.270Z,3.07
2019-03-12T00:57:46.857Z,3.97
2019-03-12T01:00:16.022Z,2.43
2019-03-12T01:02:44.828Z,3.57
2019-03-12T01:05:13.341Z,2.37
2019-03-12T01:07:41.824Z,1.53
2019-03-12T01:10:11.594Z,3.23
2019-03-12T01:12:40.134Z,2.00
2019-03-12T01:15:09.082Z,2.47
2019-03-12T01:17:37.620Z,1.30
2019-03-12T01:20:07.479Z,1.43
2019-03-12T01:22:36.282Z,1.63
2019-03-12T01:25:05.561Z,1.10
2019-03-12T01:27:34.344Z,1.50
2019-03-12T01:30:02.840Z,3.30
2019-03-12T01:32:31.369Z,1.43
2019-03-12T01:34:59.896Z,2.87
2019-03-12T01:37:28.518Z,1.13
2019-03-12T01:39:57.053Z,3.33
2019-03-12T01:42:25.712Z,1.67
2019-03-12T01:44:54.274Z,1.43
2019-03-12T01:47:22.766Z,1.60
2019-03-12T01:49:51.361Z,2.07
2019-03-12T01:52:19.850Z,2.40
2019-03-12T01:54:48.357Z,1.33
2019-03-12T01:57:16.894Z,2.50
2019-03-12T01:59:45.469Z,1.63
2019-03-12T02:02:14.041Z,1.73
2019-03-12T02:04:42.549Z,1.47
2019-03-12T02:07:11.088Z,2.27
2019-03-12T02:09:40.400Z,0.77
2019-03-12T02:12:09.186Z,1.53
2019-03-12T02:14:37.689Z,2.43
2019-03-12T02:17:06.230Z,1.53
2019-03-12T02:19:35.039Z,1.50
2019-03-12T02:22:05.280Z,2.07
2019-03-12T02:24:33.808Z,1.70
2019-03-12T02:27:02.289Z,0.77
2019-03-12T02:29:31.108Z,1.90
2019-03-12T02:31:59.606Z,1.30
2019-03-12T02:34:28.118Z,2.00
2019-03-12T02:36:56.661Z,2.90
2019-03-12T02:39:25.187Z,1.40
2019-03-12T02:41:53.752Z,1.87
2019-03-12T02:44:22.331Z,1.80
2019-03-12T02:46:50.830Z,1.33
2019-03-12T02:49:19.339Z,1.87
2019-03-12T02:51:47.859Z,2.67
2019-03-12T02:54:16.373Z,2.03
2019-03-12T02:56:44.910Z,1.67
2019-03-12T02:59:13.424Z,1.80
2019-03-12T03:01:41.989Z,1.07
2019-03-12T03:04:10.565Z,1.13
2019-03-12T03:07:13.331Z,1.20
2019-03-12T03:09:42.219Z,1.90
2019-03-12T03:12:10.736Z,1.43
2019-03-12T03:14:40.330Z,1.10
2019-03-12T03:17:11.788Z,1.30
2019-03-12T03:19:40.651Z,0.83
2019-03-12T03:22:09.437Z,1.37
2019-03-12T03:24:38.222Z,1.87
2019-03-12T03:27:06.740Z,0.90
2019-03-12T03:29:35.265Z,1.07
2019-03-12T03:32:03.821Z,1.57
2019-03-12T03:34:32.297Z,1.73
2019-03-12T03:37:00.828Z,2.03
2019-03-12T03:39:29.334Z,1.17
2019-03-12T03:41:57.922Z,0.90
2019-03-12T03:44:26.838Z,1.90
2019-03-12T03:46:55.403Z,2.13
2019-03-12T03:49:23.949Z,1.00
2019-03-12T03:51:52.475Z,1.40
2019-03-12T03:54:21.012Z,1.80
2019-03-12T03:56:49.797Z,0.63
2019-03-12T03:59:18.324Z,0.80
2019-03-12T04:01:46.848Z,0.97
2019-03-12T04:04:15.381Z,1.37
2019-03-12T04:06:43.952Z,1.13
2019-03-12T04:09:12.504Z,0.57
2019-03-12T04:11:41.314Z,0.63
2019-03-12T04:14:10.126Z,1.40
2019-03-12T04:16:38.677Z,1.03
2019-03-12T04:19:07.446Z,1.07
2019-03-12T04:21:35.980Z,1.57
2019-03-12T04:24:04.492Z,1.23
2019-03-12T04:26:33.015Z,2.17
2019-03-12T04:29:01.538Z,5.53
2019-03-12T04:31:30.053Z,5.50
2019-03-12T04:34:11.962Z,4.87
2019-03-12T04:36:40.589Z,3.43
2019-03-12T04:39:09.128Z,3.93
2019-03-12T04:41:37.712Z,2.93
2019-03-12T04:44:06.230Z,3.93
2019-03-12T04:46:34.773Z,1.93
2019-03-12T04:49:03.309Z,2.93
2019-03-12T04:51:31.826Z,3.67
2019-03-12T04:54:00.629Z,3.80
2019-03-12T04:56:29.230Z,2.63
2019-03-12T04:58:57.756Z,1.83
2019-03-12T05:01:26.269Z,1.00
2019-03-12T05:03:55.376Z,1.60
2019-03-12T05:06:23.937Z,3.93
2019-03-12T05:08:52.549Z,2.20
2019-03-12T05:11:21.418Z,2.63
2019-03-12T05:14:21.451Z,4.00
2019-03-12T05:16:50.106Z,2.77
2019-03-12T05:19:18.672Z,3.00
2019-03-12T05:21:47.189Z,3.00
2019-03-12T05:24:15.713Z,1.40
2019-03-12T05:26:44.560Z,1.83
2019-03-12T05:29:13.074Z,4.37
2019-03-12T05:31:41.621Z,2.50
2019-03-12T05:34:10.185Z,5.73
2019-03-12T05:36:38.748Z,2.57
2019-03-12T05:39:07.740Z,1.60
2019-03-12T05:41:36.583Z,1.40
2019-03-12T05:44:05.143Z,7.10
2019-03-12T05:46:33.689Z,9.37
2019-03-12T05:49:02.210Z,12.40
2019-03-12T05:51:30.734Z,8.30
2019-03-12T05:53:59.274Z,13.10
2019-03-12T05:56:27.782Z,9.80
2019-03-12T05:58:56.300Z,12.40
2019-03-12T06:01:24.812Z,8.23
2019-03-12T06:03:53.613Z,6.77
2019-03-12T06:06:22.166Z,9.07
2019-03-12T06:08:50.990Z,5.10
2019-03-12T06:11:19.761Z,4.67
2019-03-12T06:13:48.282Z,3.10
2019-03-12T06:16:16.811Z,5.27
2019-03-12T06:18:45.300Z,5.20
2019-03-12T06:21:13.815Z,6.07
2019-03-12T06:23:42.325Z,10.30
2019-03-12T06:26:10.838Z,9.50
2019-03-12T06:28:39.356Z,7.70
2019-03-12T06:31:29.960Z,13.50
2019-03-12T06:34:08.663Z,14.20
2019-03-12T06:36:59.225Z,5.43
2019-03-12T06:39:36.027Z,12.23
2019-03-12T06:42:11.649Z,13.70
2019-03-12T06:44:59.196Z,8.53
2019-03-12T06:47:34.829Z,10.20
2019-03-12T06:50:13.261Z,11.37
2019-03-12T06:53:00.807Z,8.97
2019-03-12T06:55:36.336Z,8.43
2019-03-12T06:58:37.864Z,11.70
2019-03-12T07:01:21.112Z,9.70
2019-03-12T07:03:59.302Z,10.50
2019-03-12T07:06:42.249Z,10.63
2019-03-12T07:09:32.644Z,12.03
2019-03-12T07:12:06.037Z,7.77
2019-03-12T07:14:39.795Z,10.23
2019-03-12T07:17:13.646Z,8.77
2019-03-12T07:20:00.119Z,11.10
2019-03-12T07:22:37.850Z,10.90
2019-03-12T07:25:11.433Z,10.77
2019-03-12T07:27:58.993Z,8.67
2019-03-12T07:30:45.137Z,6.10
2019-03-12T07:33:29.016Z,8.67
2019-03-12T07:36:15.282Z,7.17
2019-03-12T07:39:03.327Z,5.60
2019-03-12T07:41:40.310Z,6.80
2019-03-12T07:44:26.961Z,6.63
2019-03-12T07:47:09.831Z,5.60
2019-03-12T07:49:58.570Z,7.13
2019-03-12T07:52:50.421Z,7.27
2019-03-12T07:55:33.145Z,5.70
2019-03-12T07:58:15.740Z,4.27
2019-03-12T08:00:50.276Z,7.07
2019-03-12T08:03:45.890Z,3.60
2019-03-12T08:06:32.322Z,6.20
2019-03-12T08:09:18.847Z,5.90
2019-03-12T08:11:55.892Z,9.33
2019-03-12T08:14:30.640Z,5.77
2019-03-12T08:17:06.053Z,7.97
2019-03-12T08:19:53.586Z,6.90
2019-03-12T08:22:34.788Z,5.50
2019-03-12T08:25:11.304Z,6.57
2019-03-12T08:28:00.809Z,4.23
2019-03-12T08:30:48.360Z,4.63
2019-03-12T08:33:28.800Z,6.43
2019-03-12T08:36:06.477Z,7.17
2019-03-12T08:38:48.085Z,9.17
2019-03-12T08:41:25.770Z,6.03
2019-03-12T08:44:00.505Z,6.20
2019-03-12T08:46:57.385Z,7.47
2019-03-12T08:49:53.773Z,5.50
2019-03-12T08:52:47.489Z,6.87
2019-03-12T08:55:28.733Z,3.90
2019-03-12T08:58:11.332Z,4.87
2019-03-12T09:01:04.744Z,4.27
2019-03-12T09:03:44.234Z,5.83
2019-03-12T09:06:19.192Z,3.10
2019-03-12T09:09:12.757Z,5.63
2019-03-12T09:11:59.109Z,3.63
2019-03-12T09:14:41.731Z,4.57
2019-03-12T09:17:47.820Z,4.90
2019-03-12T09:20:34.523Z,3.33
2019-03-12T09:23:21.034Z,4.30
2019-03-12T09:26:07.286Z,3.97
2019-03-12T09:29:01.094Z,4.67
2019-03-12T09:31:56.714Z,5.80
2019-03-12T09:34:50.459Z,7.13
2019-03-12T09:37:25.084Z,4.93
2019-03-12T09:40:09.787Z,3.60
2019-03-12T09:42:56.046Z,2.80
2019-03-12T09:45:49.048Z,4.63
2019-03-12T09:48:27.041Z,3.13
2019-03-12T09:51:01.666Z,4.40
2019-03-12T09:53:45.289Z,6.60
2019-03-12T09:56:38.890Z,3.30
2019-03-12T09:59:32.563Z,4.70
2019-03-12T10:02:08.090Z,7.47
2019-03-12T10:04:54.612Z,2.80
2019-03-12T10:07:57.537Z,2.63
2019-03-12T10:10:33.622Z,3.40
2019-03-12T10:13:15.959Z,5.03
2019-03-12T10:16:01.407Z,3.70
2019-03-12T10:18:48.946Z,3.87
2019-03-12T10:21:28.581Z,3.80
2019-03-12T10:24:12.879Z,4.97
2019-03-12T10:27:02.921Z,4.50
2019-03-12T10:29:56.427Z,3.33
2019-03-12T10:32:42.936Z,4.27
2019-03-12T10:35:27.758Z,3.63
2019-03-12T10:38:11.085Z,1.67
2019-03-12T10:40:55.739Z,2.40
2019-03-12T10:43:45.330Z,3.87
2019-03-12T10:46:25.782Z,3.40
2019-03-12T10:48:54.311Z,2.90
2019-03-12T10:51:22.845Z,3.33
2019-03-12T10:53:51.388Z,2.67
2019-03-12T10:56:20.152Z,3.87
2019-03-12T10:58:48.669Z,3.57
2019-03-12T11:01:17.160Z,3.77
2019-03-12T11:03:45.768Z,3.30
2019-03-12T11:06:14.616Z,2.57
2019-03-12T11:08:43.121Z,3.27
2019-03-12T11:11:11.647Z,4.40
2019-03-12T11:13:40.444Z,4.17
2019-03-12T11:16:08.957Z,2.43
2019-03-12T11:18:37.707Z,2.27
2019-03-12T11:21:06.228Z,3.20
2019-03-12T11:23:34.821Z,4.33
2019-03-12T11:26:03.338Z,4.10
2019-03-12T11:28:32.154Z,3.77
2019-03-12T11:31:00.673Z,2.53
2019-03-12T11:33:29.177Z,2.57
2019-03-12T11:35:57.763Z,3.67
2019-03-12T11:38:26.284Z,1.93
2019-03-12T11:40:54.801Z,3.10
2019-03-12T11:43:23.331Z,3.50
2019-03-12T11:45:51.949Z,2.83
2019-03-12T11:48:20.776Z,2.27
2019-03-12T11:50:49.345Z,1.93
2019-03-12T11:53:17.938Z,5.17
2019-03-12T11:55:46.458Z,4.13
2019-03-12T11:58:14.989Z,3.53
2019-03-12T12:00:48.582Z,3.20
2019-03-12T12:03:17.088Z,2.37
2019-03-12T12:05:45.615Z,2.33
2019-03-12T12:08:14.124Z,3.37
2019-03-12T12:10:42.653Z,2.83
2019-03-12T12:13:11.156Z,1.27
2019-03-12T12:15:39.679Z,1.80
2019-03-12T12:18:08.193Z,2.83
2019-03-12T12:20:36.722Z,1.10
2019-03-12T12:23:05.339Z,2.10
2019-03-12T12:25:34.304Z,3.47
2019-03-12T12:28:02.832Z,2.70
2019-03-12T12:30:31.352Z,2.23
2019-03-12T12:32:59.860Z,2.60
2019-03-12T12:35:28.386Z,2.40
2019-03-12T12:37:57.179Z,1.70
2019-03-12T12:40:25.686Z,2.23
2019-03-12T12:42:54.257Z,2.37
2019-03-12T12:45:23.743Z,1.93
2019-03-12T12:47:52.312Z,3.57
2019-03-12T12:50:20.868Z,2.67
2019-03-12T12:52:49.394Z,3.73
2019-03-12T12:55:17.930Z,2.63
2019-03-12T12:57:46.904Z,1.90
2019-03-12T13:00:17.374Z,1.50
2019-03-12T13:02:45.941Z,1.80
2019-03-12T13:05:14.694Z,3.60
2019-03-12T13:07:43.447Z,1.93
2019-03-12T13:10:14.896Z,1.70
2019-03-12T13:12:46.305Z,2.60
2019-03-12T13:15:13.988Z,2.13
2019-03-12T13:17:42.529Z,1.90
2019-03-12T13:20:11.153Z,1.97
2019-03-12T13:22:39.656Z,1.53
2019-03-12T13:25:08.674Z,0.83
2019-03-12T13:27:42.049Z,1.73
2019-03-12T13:30:08.306Z,1.37
2019-03-12T13:32:36.923Z,1.80
2019-03-12T13:35:05.927Z,0.97
2019-03-12T13:37:34.850Z,2.00
2019-03-12T13:40:03.640Z,2.53
2019-03-12T13:42:32.166Z,1.73
2019-03-12T13:45:01.422Z,3.00
2019-03-12T13:47:30.258Z,1.33
2019-03-12T13:49:59.111Z,1.77
2019-03-12T13:52:28.468Z,1.50
2019-03-12T13:54:57.130Z,1.80
2019-03-12T13:57:25.647Z,1.40
2019-03-12T13:59:54.156Z,1.70
2019-03-12T14:02:22.758Z,1.97
2019-03-12T14:04:51.202Z,1.47
2019-03-12T14:07:19.711Z,3.40
2019-03-12T14:09:48.229Z,1.17
2019-03-12T14:12:17.105Z,1.10
2019-03-12T14:14:45.615Z,1.70
2019-03-12T14:17:14.128Z,1.87
2019-03-12T14:19:42.641Z,0.70
2019-03-12T14:22:11.182Z,1.20
2019-03-12T14:24:40.032Z,1.27
2019-03-12T14:27:08.535Z,1.53
2019-03-12T14:29:37.366Z,1.13
2019-03-12T14:32:05.915Z,1.53
2019-03-12T14:34:34.465Z,1.97
2019-03-12T14:37:02.994Z,1.30
2019-03-12T14:39:31.509Z,2.40
2019-03-12T14:42:00.049Z,1.97
2019-03-12T14:44:29.187Z,2.27
2019-03-12T14:46:57.725Z,0.90
2019-03-12T14:49:26.249Z,0.77
2019-03-12T14:52:24.801Z,1.63
2019-03-12T14:54:53.656Z,2.23
2019-03-12T14:57:22.205Z,2.27
2019-03-12T14:59:50.713Z,1.53
2019-03-12T15:02:19.229Z,1.37
2019-03-12T15:04:47.767Z,1.47
2019-03-12T15:07:16.306Z,1.43
2019-03-12T15:09:45.119Z,1.47
2019-03-12T15:12:13.636Z,1.67
2019-03-12T15:14:42.178Z,1.30
2019-03-12T15:17:10.682Z,2.10
2019-03-12T15:19:39.548Z,1.90
2019-03-12T15:22:08.080Z,1.27
2019-03-12T15:24:36.593Z,1.03
2019-03-12T15:27:05.431Z,1.80
2019-03-12T15:29:33.982Z,1.60
2019-03-12T15:32:04.572Z,0.80
2019-03-12T15:34:32.729Z,1.10
2019-03-12T15:37:01.235Z,1.03
2019-03-12T15:39:29.781Z,0.63
2019-03-12T15:41:58.327Z,0.83
2019-03-12T15:44:26.847Z,1.33
2019-03-12T15:46:55.698Z,1.57
2019-03-12T15:49:24.241Z,0.80
2019-03-12T15:51:53.088Z,0.90
2019-03-12T15:54:21.716Z,1.00
2019-03-12T15:56:50.236Z,1.63
2019-03-12T15:59:18.842Z,0.77
2019-03-12T16:01:47.298Z,0.87
2019-03-12T16:04:16.134Z,1.07
2019-03-12T16:06:44.642Z,1.20
2019-03-12T16:09:13.474Z,0.70
2019-03-12T16:11:42.156Z,1.63
2019-03-12T16:14:10.654Z,1.27
2019-03-12T16:16:39.195Z,1.17
2019-03-12T16:19:07.988Z,1.30
2019-03-12T16:21:36.543Z,0.80
2019-03-12T16:24:05.088Z,2.30
2019-03-12T16:26:33.624Z,6.60
2019-03-12T16:29:02.154Z,5.50
2019-03-12T16:31:30.695Z,2.77
2019-03-12T16:33:59.199Z,1.43
2019-03-12T16:36:27.736Z,1.63
2019-03-12T16:38:56.289Z,2.00
2019-03-12T16:41:24.877Z,4.13
2019-03-12T16:43:53.410Z,1.63
2019-03-12T16:46:21.941Z,1.03
2019-03-12T16:48:50.442Z,1.23
2019-03-12T16:51:18.952Z,1.40
2019-03-12T16:53:47.488Z,1.60
2019-03-12T16:56:16.014Z,2.20
2019-03-12T16:58:44.545Z,1.20
2019-03-12T17:01:13.129Z,2.20
2019-03-12T17:03:41.881Z,1.20
2019-03-12T17:06:10.448Z,1.03
2019-03-12T17:08:38.959Z,0.93
2019-03-12T17:11:07.519Z,1.73
2019-03-12T17:13:36.008Z,2.00
2019-03-12T17:16:04.528Z,1.50
2019-03-12T17:18:33.096Z,0.70
2019-03-12T17:21:01.892Z,1.57
2019-03-12T17:23:30.417Z,2.67
2019-03-12T17:25:58.960Z,1.67
2019-03-12T17:28:27.542Z,0.87
2019-03-12T17:30:56.111Z,0.30
2019-03-12T17:33:24.986Z,0.93
2019-03-12T17:35:54.394Z,0.43
2019-03-12T17:38:22.901Z,2.50
2019-03-12T17:40:51.437Z,2.67
2019-03-12T17:43:19.979Z,0.57
2019-03-12T17:45:48.491Z,1.03
2019-03-12T17:48:17.000Z,1.90
2019-03-12T17:50:45.521Z,1.73
2019-03-12T17:53:14.271Z,0.30
2019-03-12T17:55:42.800Z,1.73
2019-03-12T17:58:11.647Z,1.70
2019-03-12T18:00:42.799Z,0.20
2019-03-12T18:03:11.323Z,0.53
2019-03-12T18:05:40.145Z,1.30
2019-03-12T18:08:09.147Z,1.97
2019-03-12T18:10:37.663Z,0.60
2019-03-12T18:13:06.184Z,1.43
2019-03-12T18:15:34.715Z,1.13
2019-03-12T18:18:03.238Z,2.87
2019-03-12T18:20:31.799Z,1.50
2019-03-12T18:23:00.372Z,2.20
2019-03-12T18:25:29.112Z,1.03
2019-03-12T18:27:57.568Z,1.40
2019-03-12T18:30:26.082Z,2.67
2019-03-12T18:32:54.579Z,2.90
2019-03-12T18:35:23.464Z,1.27
2019-03-12T18:37:52.036Z,1.47
2019-03-12T18:40:20.579Z,2.70
2019-03-12T18:42:49.965Z,0.60
2019-03-12T18:45:20.222Z,1.43
2019-03-12T18:47:49.068Z,2.33
2019-03-12T18:50:17.667Z,1.73
2019-03-12T18:52:46.221Z,1.40
2019-03-12T18:55:55.361Z,2.20
2019-03-12T18:58:23.864Z,2.10
2019-03-12T19:00:52.482Z,3.67
2019-03-12T19:03:21.012Z,0.80
2019-03-12T19:05:49.549Z,1.20
2019-03-12T19:08:18.045Z,1.27
2019-03-12T19:10:46.557Z,2.27
2019-03-12T19:13:15.125Z,0.40
2019-03-12T19:15:43.636Z,2.60
2019-03-12T19:18:12.163Z,0.97
2019-03-12T19:20:40.672Z,0.50
2019-03-12T19:23:09.185Z,0.60
2019-03-12T19:25:38.505Z,0.50
2019-03-12T19:28:07.422Z,0.40
2019-03-12T19:30:35.929Z,1.43
2019-03-12T19:33:07.260Z,1.40
2019-03-12T19:35:36.046Z,0.50
2019-03-12T19:38:04.825Z,0.60
2019-03-12T19:40:33.678Z,0.70
2019-03-12T19:43:02.234Z,0.83
2019-03-12T19:45:30.760Z,0.90
2019-03-12T19:47:59.281Z,1.60
2019-03-12T19:50:27.803Z,1.33
2019-03-12T19:52:56.298Z,0.47
2019-03-12T19:55:28.077Z,1.07
2019-03-12T19:57:56.583Z,1.80
2019-03-12T20:00:26.701Z,1.63
2019-03-12T20:02:55.203Z,0.57
2019-03-12T20:05:23.748Z,2.20
2019-03-12T20:07:52.341Z,0.20
2019-03-12T20:10:53.432Z,1.63
2019-03-12T20:14:06.472Z,2.43
2019-03-12T20:17:19.276Z,1.40
2019-03-12T20:20:35.680Z,3.63
2019-03-12T20:23:34.139Z,2.10
2019-03-12T20:26:59.165Z,1.93
2019-03-12T20:29:55.246Z,1.27
2019-03-12T20:33:00.058Z,0.70
2019-03-12T20:35:59.634Z,0.40
2019-03-12T20:39:11.446Z,1.17
2019-03-12T20:42:16.552Z,1.23
2019-03-12T20:45:13.958Z,1.70
2019-03-12T20:48:36.154Z,1.70
2019-03-12T20:51:54.055Z,0.63
2019-03-12T20:55:26.804Z,5.73
2019-03-12T20:58:38.660Z,2.67
2019-03-12T21:01:49.825Z,2.67
2019-03-12T21:04:57.115Z,1.63
2019-03-12T21:08:08.703Z,0.93
2019-03-12T21:11:37.345Z,2.13
2019-03-12T21:14:41.684Z,1.03
2019-03-12T21:17:59.930Z,0.80
2019-03-12T21:21:08.279Z,1.17
2019-03-12T21:23:53.341Z,0.83
2019-03-12T21:27:01.495Z,3.40
2019-03-12T21:29:44.971Z,1.70
2019-03-12T21:32:14.233Z,1.23
2019-03-12T21:34:42.937Z,1.83
2019-03-12T21:37:11.760Z,0.70
2019-03-12T21:39:54.060Z,1.17
2019-03-12T21:42:10.613Z,1.40
2019-03-12T21:44:39.136Z,0.87
2019-03-12T21:47:07.659Z,1.63
2019-03-12T21:49:36.185Z,0.80
2019-03-12T21:52:04.780Z,1.13
2019-03-12T21:54:33.306Z,0.70
2019-03-12T21:57:01.829Z,0.93
2019-03-12T21:59:30.671Z,1.67
2019-03-12T22:01:59.184Z,1.07
2019-03-12T22:04:28.067Z,0.67
2019-03-12T22:06:56.845Z,0.53
2019-03-12T22:09:25.489Z,0.80
2019-03-12T22:11:53.989Z,0.40
2019-03-12T22:14:22.511Z,0.50
2019-03-12T22:16:53.631Z,2.60
2019-03-12T22:19:22.144Z,0.40
2019-03-12T22:22:15.885Z,0.40
2019-03-12T22:24:44.384Z,0.30
2019-03-12T22:27:12.964Z,0.60
2019-03-12T22:29:41.459Z,0.97
2019-03-12T22:32:10.042Z,0.30
2019-03-12T22:34:38.598Z,0.30
2019-03-12T22:37:07.123Z,1.10
2019-03-12T22:39:35.656Z,1.33
2019-03-12T22:42:04.153Z,0.40
2019-03-12T22:44:32.650Z,0.30
2019-03-12T22:47:01.471Z,0.43
2019-03-12T22:49:30.005Z,0.93
2019-03-12T22:51:58.496Z,1.03
2019-03-12T22:54:27.020Z,0.77
2019-03-12T22:56:55.547Z,0.73
2019-03-12T22:59:24.087Z,1.80
2019-03-12T23:01:52.597Z,0.43
2019-03-12T23:04:21.394Z,1.23
2019-03-12T23:06:49.876Z,0.57
2019-03-12T23:09:18.396Z,0.97
2019-03-12T23:11:46.923Z,0.30
2019-03-12T23:14:15.419Z,0.40
2019-03-12T23:16:43.934Z,0.50
2019-03-12T23:19:12.492Z,1.67
2019-03-12T23:21:41.050Z,0.50
2019-03-12T23:24:09.544Z,0.50
2019-03-12T23:26:38.056Z,0.40
2019-03-12T23:29:06.900Z,0.50
2019-03-12T23:31:35.422Z,0.53
2019-03-12T23:34:03.977Z,0.50
2019-03-12T23:36:32.480Z,1.97
2019-03-12T23:39:00.982Z,1.73
2019-03-12T23:41:29.835Z,2.40
2019-03-12T23:43:58.430Z,0.40
2019-03-12T23:46:26.932Z,1.03
2019-03-12T23:48:55.437Z,0.83
2019-03-12T23:51:23.949Z,1.03
2019-03-12T23:53:52.456Z,0.47
2019-03-12T23:56:21.032Z,0.50
2019-03-12T23:58:49.515Z,0.20
